sensor_id;sensor_type;location;lat;lon;timestamp;temperature;humidity
5868;DHT22;2960;49.142;7.768;2024-01-15T00:01:14;-1.20;63.80
5868;DHT22;2960;49.142;7.768;2024-01-15T00:03:42;-1.10;63.80
5868;DHT22;2960;49.142;7.768;2024-01-15T00:06:10;-1.20;63.70
5868;DHT22;2960;49.142;7.768;2024-01-15T00:08:38;-1.20;63.80
5868;DHT22;2960;49.142;7.768;2024-01-15T00:11:05;-1.10;63.90
5868;DHT22;2960;49.142;7.768;2024-01-15T00:13:32;-1.10;63.90
5868;DHT22;2960;49.142;7.768;2024-01-15T00:15:59;-1.10;63.90
5868;DHT22;2960;49.142;7.768;2024-01-15T00:18:26;-1.10;63.90
5868;DHT22;2960;49.142;7.768;2024-01-15T00:20:54;-1.00;63.90
5868;DHT22;2960;49.142;7.768;2024-01-15T00:23:22;-1.00;63.80
5868;DHT22;2960;49.142;7.768;2024-01-15T00:25:51;-1.00;63.80
5868;DHT22;2960;49.142;7.768;2024-01-15T00:28:18;-1.20;63.70
5868;DHT22;2960;49.142;7.768;2024-01-15T00:30:45;-1.00;63.80
5868;DHT22;2960;49.142;7.768;2024-01-15T00:33:12;-1.00;63.90
5868;DHT22;2960;49.142;7.768;2024-01-15T00:35:40;-1.10;63.80
5868;DHT22;2960;49.142;7.768;2024-01-15T00:38:08;-1.00;63.90
5868;DHT22;2960;49.142;7.768;2024-01-15T00:40:35;-1.00;63.90
5868;DHT22;2960;49.142;7.768;2024-01-15T00:43:03;-1.00;63.90
5868;DHT22;2960;49.142;7.768;2024-01-15T00:45:32;-1.00;63.90
5868;DHT22;2960;49.142;7.768;2024-01-15T00:47:59;-1.00;63.90
5868;DHT22;2960;49.142;7.768;2024-01-15T00:50:26;-1.00;64.00
5868;DHT22;2960;49.142;7.768;2024-01-15T00:52:54;-1.10;64.00
5868;DHT22;2960;49.142;7.768;2024-01-15T00:55:23;-1.10;64.10
5868;DHT22;2960;49.142;7.768;2024-01-15T00:57:50;-1.10;64.10
5868;DHT22;2960;49.142;7.768;2024-01-15T01:00:17;-1.00;64.10
5868;DHT22;2960;49.142;7.768;2024-01-15T01:02:44;-1.00;64.20
5868;DHT22;2960;49.142;7.768;2024-01-15T01:05:11;-1.00;64.10
5868;DHT22;2960;49.142;7.768;2024-01-15T01:07:38;-1.00;64.80
5868;DHT22;2960;49.142;7.768;2024-01-15T01:10:06;-1.00;64.10
5868;DHT22;2960;49.142;7.768;2024-01-15T01:12:34;-1.00;64.10
5868;DHT22;2960;49.142;7.768;2024-01-15T01:15:02;-1.00;64.10
5868;DHT22;2960;49.142;7.768;2024-01-15T01:17:30;-1.00;64.20
5868;DHT22;2960;49.142;7.768;2024-01-15T01:19:57;-1.00;64.20
5868;DHT22;2960;49.142;7.768;2024-01-15T01:22:24;-1.00;64.30
5868;DHT22;2960;49.142;7.768;2024-01-15T01:24:51;-1.00;64.30
5868;DHT22;2960;49.142;7.768;2024-01-15T01:27:19;-1.00;64.40
5868;DHT22;2960;49.142;7.768;2024-01-15T01:29:47;-1.00;64.40
5868;DHT22;2960;49.142;7.768;2024-01-15T01:32:14;-1.00;64.40
5868;DHT22;2960;49.142;7.768;2024-01-15T01:34:41;-0.90;64.40
5868;DHT22;2960;49.142;7.768;2024-01-15T01:37:09;-0.90;64.40
5868;DHT22;2960;49.142;7.768;2024-01-15T01:39:38;-0.90;64.40
5868;DHT22;2960;49.142;7.768;2024-01-15T01:42:05;-0.90;64.40
5868;DHT22;2960;49.142;7.768;2024-01-15T01:44:32;-0.90;64.50
5868;DHT22;2960;49.142;7.768;2024-01-15T01:47:01;-0.90;64.50
5868;DHT22;2960;49.142;7.768;2024-01-15T01:49:29;-0.90;64.60
5868;DHT22;2960;49.142;7.768;2024-01-15T01:51:58;-0.90;64.60
5868;DHT22;2960;49.142;7.768;2024-01-15T01:54:28;-0.90;64.60
5868;DHT22;2960;49.142;7.768;2024-01-15T01:56:56;-0.90;64.60
5868;DHT22;2960;49.142;7.768;2024-01-15T01:59:25;-0.90;64.60
5868;DHT22;2960;49.142;7.768;2024-01-15T02:01:55;-0.80;64.60
5868;DHT22;2960;49.142;7.768;2024-01-15T02:04:24;-0.80;64.60
5868;DHT22;2960;49.142;7.768;2024-01-15T02:06:52;-0.80;64.60
5868;DHT22;2960;49.142;7.768;2024-01-15T02:09:19;-0.80;64.50
5868;DHT22;2960;49.142;7.768;2024-01-15T02:11:46;-0.80;64.50
5868;DHT22;2960;49.142;7.768;2024-01-15T02:14:14;-0.80;64.60
5868;DHT22;2960;49.142;7.768;2024-01-15T02:16:41;-0.80;64.60
5868;DHT22;2960;49.142;7.768;2024-01-15T02:19:14;-0.80;64.60
5868;DHT22;2960;49.142;7.768;2024-01-15T02:21:43;-0.80;64.60
5868;DHT22;2960;49.142;7.768;2024-01-15T02:24:12;-0.80;64.60
5868;DHT22;2960;49.142;7.768;2024-01-15T02:26:39;-0.80;64.70
5868;DHT22;2960;49.142;7.768;2024-01-15T02:29:07;-0.80;64.80
5868;DHT22;2960;49.142;7.768;2024-01-15T02:31:35;-0.80;64.90
5868;DHT22;2960;49.142;7.768;2024-01-15T02:34:03;-0.80;64.90
5868;DHT22;2960;49.142;7.768;2024-01-15T02:36:30;-0.70;64.90
5868;DHT22;2960;49.142;7.768;2024-01-15T02:38:57;-0.70;64.90
5868;DHT22;2960;49.142;7.768;2024-01-15T02:41:28;-0.70;64.80
5868;DHT22;2960;49.142;7.768;2024-01-15T02:43:55;-0.70;64.80
5868;DHT22;2960;49.142;7.768;2024-01-15T02:46:22;-0.70;64.80
5868;DHT22;2960;49.142;7.768;2024-01-15T02:48:49;-0.60;64.90
5868;DHT22;2960;49.142;7.768;2024-01-15T02:51:16;-0.60;64.90
5868;DHT22;2960;49.142;7.768;2024-01-15T02:53:43;-0.60;65.60
5868;DHT22;2960;49.142;7.768;2024-01-15T02:56:11;-0.60;64.80
5868;DHT22;2960;49.142;7.768;2024-01-15T02:58:40;-0.60;64.80
5868;DHT22;2960;49.142;7.768;2024-01-15T03:01:07;-0.60;64.90
5868;DHT22;2960;49.142;7.768;2024-01-15T03:03:34;-0.60;64.90
5868;DHT22;2960;49.142;7.768;2024-01-15T03:06:02;-0.60;64.90
5868;DHT22;2960;49.142;7.768;2024-01-15T03:08:29;-0.60;65.00
5868;DHT22;2960;49.142;7.768;2024-01-15T03:10:56;-0.60;64.90
5868;DHT22;2960;49.142;7.768;2024-01-15T03:13:24;-0.60;64.90
5868;DHT22;2960;49.142;7.768;2024-01-15T03:15:54;-0.60;65.00
5868;DHT22;2960;49.142;7.768;2024-01-15T03:18:21;-0.60;65.10
5868;DHT22;2960;49.142;7.768;2024-01-15T03:20:48;-0.60;65.10
5868;DHT22;2960;49.142;7.768;2024-01-15T03:23:15;-0.60;65.20
5868;DHT22;2960;49.142;7.768;2024-01-15T03:25:42;-0.60;65.20
5868;DHT22;2960;49.142;7.768;2024-01-15T03:28:10;-0.60;65.10
5868;DHT22;2960;49.142;7.768;2024-01-15T03:30:37;-0.50;65.20
5868;DHT22;2960;49.142;7.768;2024-01-15T03:33:05;-0.50;65.20
5868;DHT22;2960;49.142;7.768;2024-01-15T03:35:32;-0.50;65.20
5868;DHT22;2960;49.142;7.768;2024-01-15T03:38:00;-0.50;65.20
5868;DHT22;2960;49.142;7.768;2024-01-15T03:40:27;-0.50;65.20
5868;DHT22;2960;49.142;7.768;2024-01-15T03:42:54;-0.50;65.20
5868;DHT22;2960;49.142;7.768;2024-01-15T03:45:21;-0.50;65.30
5868;DHT22;2960;49.142;7.768;2024-01-15T03:47:48;-0.50;65.50
5868;DHT22;2960;49.142;7.768;2024-01-15T03:50:16;-0.50;65.40
5868;DHT22;2960;49.142;7.768;2024-01-15T03:52:43;-0.40;65.60
5868;DHT22;2960;49.142;7.768;2024-01-15T03:55:10;-0.40;65.60
5868;DHT22;2960;49.142;7.768;2024-01-15T03:57:37;-0.40;65.50
5868;DHT22;2960;49.142;7.768;2024-01-15T04:00:06;-0.40;65.50
5868;DHT22;2960;49.142;7.768;2024-01-15T04:02:34;-0.40;65.50
5868;DHT22;2960;49.142;7.768;2024-01-15T04:05:01;-0.30;65.60
5868;DHT22;2960;49.142;7.768;2024-01-15T04:07:29;-0.30;65.50
5868;DHT22;2960;49.142;7.768;2024-01-15T04:09:56;-0.30;65.40
5868;DHT22;2960;49.142;7.768;2024-01-15T04:12:23;-0.20;65.50
5868;DHT22;2960;49.142;7.768;2024-01-15T04:14:50;-0.30;65.40
5868;DHT22;2960;49.142;7.768;2024-01-15T04:17:17;-0.20;65.50
5868;DHT22;2960;49.142;7.768;2024-01-15T04:19:45;-0.30;65.50
5868;DHT22;2960;49.142;7.768;2024-01-15T04:22:13;-0.30;65.50
5868;DHT22;2960;49.142;7.768;2024-01-15T04:24:42;-0.20;65.70
5868;DHT22;2960;49.142;7.768;2024-01-15T04:27:09;-0.20;65.70
5868;DHT22;2960;49.142;7.768;2024-01-15T04:29:37;-0.20;65.60
5868;DHT22;2960;49.142;7.768;2024-01-15T04:32:05;-0.20;65.70
5868;DHT22;2960;49.142;7.768;2024-01-15T04:34:32;-0.20;65.70
5868;DHT22;2960;49.142;7.768;2024-01-15T04:36:59;-0.20;65.70
5868;DHT22;2960;49.142;7.768;2024-01-15T04:39:26;-0.10;65.80
5868;DHT22;2960;49.142;7.768;2024-01-15T04:41:54;-0.10;65.80
5868;DHT22;2960;49.142;7.768;2024-01-15T04:44:22;-0.10;65.80
5868;DHT22;2960;49.142;7.768;2024-01-15T04:46:49;-0.10;65.80
5868;DHT22;2960;49.142;7.768;2024-01-15T04:49:17;-0.10;65.80
5868;DHT22;2960;49.142;7.768;2024-01-15T04:51:47;0.00;66.60
5868;DHT22;2960;49.142;7.768;2024-01-15T04:54:14;0.00;65.90
5868;DHT22;2960;49.142;7.768;2024-01-15T04:56:43;0.00;65.90
5868;DHT22;2960;49.142;7.768;2024-01-15T04:59:12;0.00;65.90
5868;DHT22;2960;49.142;7.768;2024-01-15T05:01:40;0.00;66.70
5868;DHT22;2960;49.142;7.768;2024-01-15T05:04:07;0.00;66.70
5868;DHT22;2960;49.142;7.768;2024-01-15T05:06:34;0.00;65.90
5868;DHT22;2960;49.142;7.768;2024-01-15T05:09:01;-0.10;65.90
5868;DHT22;2960;49.142;7.768;2024-01-15T05:11:29;0.00;66.10
5868;DHT22;2960;49.142;7.768;2024-01-15T05:13:56;0.00;66.10
5868;DHT22;2960;49.142;7.768;2024-01-15T05:16:25;0.00;66.10
5868;DHT22;2960;49.142;7.768;2024-01-15T05:18:52;0.00;66.10
5868;DHT22;2960;49.142;7.768;2024-01-15T05:21:21;0.00;66.10
5868;DHT22;2960;49.142;7.768;2024-01-15T05:23:49;0.00;66.20
5868;DHT22;2960;49.142;7.768;2024-01-15T05:26:16;0.00;66.30
5868;DHT22;2960;49.142;7.768;2024-01-15T05:28:43;0.00;66.20
5868;DHT22;2960;49.142;7.768;2024-01-15T05:31:10;0.00;66.30
5868;DHT22;2960;49.142;7.768;2024-01-15T05:33:39;0.10;66.20
5868;DHT22;2960;49.142;7.768;2024-01-15T05:36:07;0.10;66.20
5868;DHT22;2960;49.142;7.768;2024-01-15T05:38:34;0.10;66.20
5868;DHT22;2960;49.142;7.768;2024-01-15T05:41:01;0.10;66.20
5868;DHT22;2960;49.142;7.768;2024-01-15T05:43:28;0.10;66.20
5868;DHT22;2960;49.142;7.768;2024-01-15T05:45:55;0.10;66.20
5868;DHT22;2960;49.142;7.768;2024-01-15T05:48:22;0.10;66.20
5868;DHT22;2960;49.142;7.768;2024-01-15T05:50:51;0.10;66.30
5868;DHT22;2960;49.142;7.768;2024-01-15T05:53:18;0.10;66.30
5868;DHT22;2960;49.142;7.768;2024-01-15T05:55:45;0.10;66.40
5868;DHT22;2960;49.142;7.768;2024-01-15T05:58:12;0.30;66.60
5868;DHT22;2960;49.142;7.768;2024-01-15T06:00:39;0.10;66.40
5868;DHT22;2960;49.142;7.768;2024-01-15T06:03:06;0.10;66.40
5868;DHT22;2960;49.142;7.768;2024-01-15T06:05:33;0.10;66.40
5868;DHT22;2960;49.142;7.768;2024-01-15T06:08:02;0.20;66.50
5868;DHT22;2960;49.142;7.768;2024-01-15T06:10:30;0.20;66.50
5868;DHT22;2960;49.142;7.768;2024-01-15T06:12:57;0.20;66.50
5868;DHT22;2960;49.142;7.768;2024-01-15T06:15:24;0.20;67.10
5868;DHT22;2960;49.142;7.768;2024-01-15T06:17:51;0.30;66.50
5868;DHT22;2960;49.142;7.768;2024-01-15T06:20:18;0.40;66.50
5868;DHT22;2960;49.142;7.768;2024-01-15T06:22:45;0.30;67.20
5868;DHT22;2960;49.142;7.768;2024-01-15T06:25:14;0.30;66.40
5868;DHT22;2960;49.142;7.768;2024-01-15T06:27:41;0.40;67.30
5868;DHT22;2960;49.142;7.768;2024-01-15T06:30:09;0.40;66.40
5868;DHT22;2960;49.142;7.768;2024-01-15T06:32:37;0.40;66.50
5868;DHT22;2960;49.142;7.768;2024-01-15T06:35:05;0.40;66.50
5868;DHT22;2960;49.142;7.768;2024-01-15T06:37:32;0.40;66.60
5868;DHT22;2960;49.142;7.768;2024-01-15T06:40:00;0.40;67.20
5868;DHT22;2960;49.142;7.768;2024-01-15T06:42:28;0.40;66.50
5868;DHT22;2960;49.142;7.768;2024-01-15T06:44:55;0.40;66.50
5868;DHT22;2960;49.142;7.768;2024-01-15T06:47:22;0.40;66.40
5868;DHT22;2960;49.142;7.768;2024-01-15T06:49:49;0.40;66.40
5868;DHT22;2960;49.142;7.768;2024-01-15T06:52:17;0.40;66.40
5868;DHT22;2960;49.142;7.768;2024-01-15T06:54:44;0.40;66.40
5868;DHT22;2960;49.142;7.768;2024-01-15T06:57:11;0.40;66.40
5868;DHT22;2960;49.142;7.768;2024-01-15T06:59:40;0.40;66.50
5868;DHT22;2960;49.142;7.768;2024-01-15T07:02:07;0.40;67.40
5868;DHT22;2960;49.142;7.768;2024-01-15T07:04:34;0.40;66.70
5868;DHT22;2960;49.142;7.768;2024-01-15T07:07:01;0.40;66.70
5868;DHT22;2960;49.142;7.768;2024-01-15T07:09:28;0.40;66.80
5868;DHT22;2960;49.142;7.768;2024-01-15T07:11:55;0.40;66.90
5868;DHT22;2960;49.142;7.768;2024-01-15T07:14:23;0.40;66.90
5868;DHT22;2960;49.142;7.768;2024-01-15T07:16:51;0.40;67.00
5868;DHT22;2960;49.142;7.768;2024-01-15T07:19:19;0.40;67.00
5868;DHT22;2960;49.142;7.768;2024-01-15T07:21:46;0.40;67.00
5868;DHT22;2960;49.142;7.768;2024-01-15T07:24:13;0.40;67.10
5868;DHT22;2960;49.142;7.768;2024-01-15T07:26:40;0.40;67.90
5868;DHT22;2960;49.142;7.768;2024-01-15T07:29:07;0.40;67.20
5868;DHT22;2960;49.142;7.768;2024-01-15T07:31:34;0.30;67.20
5868;DHT22;2960;49.142;7.768;2024-01-15T07:34:03;0.40;67.30
5868;DHT22;2960;49.142;7.768;2024-01-15T07:36:30;0.40;67.40
5868;DHT22;2960;49.142;7.768;2024-01-15T07:38:57;0.40;67.30
5868;DHT22;2960;49.142;7.768;2024-01-15T07:41:24;0.40;67.30
5868;DHT22;2960;49.142;7.768;2024-01-15T07:43:51;0.50;67.50
5868;DHT22;2960;49.142;7.768;2024-01-15T07:46:18;0.50;68.20
5868;DHT22;2960;49.142;7.768;2024-01-15T07:48:45;0.50;67.40
5868;DHT22;2960;49.142;7.768;2024-01-15T07:51:13;0.50;67.40
5868;DHT22;2960;49.142;7.768;2024-01-15T07:53:40;0.50;67.30
5868;DHT22;2960;49.142;7.768;2024-01-15T07:56:07;0.60;67.50
5868;DHT22;2960;49.142;7.768;2024-01-15T07:58:35;0.60;68.20
5868;DHT22;2960;49.142;7.768;2024-01-15T08:01:02;0.60;67.40
5868;DHT22;2960;49.142;7.768;2024-01-15T08:03:29;0.60;67.50
5868;DHT22;2960;49.142;7.768;2024-01-15T08:05:57;0.60;67.60
5868;DHT22;2960;49.142;7.768;2024-01-15T08:08:26;0.60;67.50
5868;DHT22;2960;49.142;7.768;2024-01-15T08:10:53;0.60;67.50
5868;DHT22;2960;49.142;7.768;2024-01-15T08:13:20;0.60;67.70
5868;DHT22;2960;49.142;7.768;2024-01-15T08:15:47;0.60;67.70
5868;DHT22;2960;49.142;7.768;2024-01-15T08:18:15;0.60;67.80
5868;DHT22;2960;49.142;7.768;2024-01-15T08:20:42;0.60;67.80
5868;DHT22;2960;49.142;7.768;2024-01-15T08:23:09;0.60;67.90
5868;DHT22;2960;49.142;7.768;2024-01-15T08:25:38;0.60;68.00
5868;DHT22;2960;49.142;7.768;2024-01-15T08:28:05;0.60;68.00
5868;DHT22;2960;49.142;7.768;2024-01-15T08:30:33;0.60;68.10
5868;DHT22;2960;49.142;7.768;2024-01-15T08:33:00;0.60;68.10
5868;DHT22;2960;49.142;7.768;2024-01-15T08:35:28;0.60;68.10
5868;DHT22;2960;49.142;7.768;2024-01-15T08:37:55;0.70;68.30
5868;DHT22;2960;49.142;7.768;2024-01-15T08:40:24;0.70;68.30
5868;DHT22;2960;49.142;7.768;2024-01-15T08:42:52;0.70;68.50
5868;DHT22;2960;49.142;7.768;2024-01-15T08:45:19;0.70;68.40
5868;DHT22;2960;49.142;7.768;2024-01-15T08:47:47;0.70;68.50
5868;DHT22;2960;49.142;7.768;2024-01-15T08:50:14;0.70;68.60
5868;DHT22;2960;49.142;7.768;2024-01-15T08:52:41;0.70;68.80
5868;DHT22;2960;49.142;7.768;2024-01-15T08:55:08;0.70;68.80
5868;DHT22;2960;49.142;7.768;2024-01-15T08:57:35;0.70;69.00
5868;DHT22;2960;49.142;7.768;2024-01-15T09:00:05;0.70;69.10
5868;DHT22;2960;49.142;7.768;2024-01-15T09:02:34;0.70;69.20
5868;DHT22;2960;49.142;7.768;2024-01-15T09:05:01;0.70;69.20
5868;DHT22;2960;49.142;7.768;2024-01-15T09:07:29;0.70;69.10
5868;DHT22;2960;49.142;7.768;2024-01-15T09:09:57;0.70;69.10
5868;DHT22;2960;49.142;7.768;2024-01-15T09:12:25;0.70;69.20
5868;DHT22;2960;49.142;7.768;2024-01-15T09:14:52;0.70;69.30
5868;DHT22;2960;49.142;7.768;2024-01-15T09:17:20;0.80;69.30
5868;DHT22;2960;49.142;7.768;2024-01-15T09:19:49;0.80;69.30
5868;DHT22;2960;49.142;7.768;2024-01-15T09:22:16;0.80;69.30
5868;DHT22;2960;49.142;7.768;2024-01-15T09:24:44;0.90;69.40
5868;DHT22;2960;49.142;7.768;2024-01-15T09:27:11;0.90;69.40
5868;DHT22;2960;49.142;7.768;2024-01-15T09:29:38;0.90;69.40
5868;DHT22;2960;49.142;7.768;2024-01-15T09:32:07;1.00;69.60
5868;DHT22;2960;49.142;7.768;2024-01-15T09:34:36;1.00;69.50
5868;DHT22;2960;49.142;7.768;2024-01-15T09:37:03;1.00;70.30
5868;DHT22;2960;49.142;7.768;2024-01-15T09:39:31;1.00;69.60
5868;DHT22;2960;49.142;7.768;2024-01-15T09:41:58;1.00;69.60
5868;DHT22;2960;49.142;7.768;2024-01-15T09:44:27;1.10;69.70
5868;DHT22;2960;49.142;7.768;2024-01-15T09:46:55;1.10;69.60
5868;DHT22;2960;49.142;7.768;2024-01-15T09:49:23;1.10;69.60
5868;DHT22;2960;49.142;7.768;2024-01-15T09:51:51;1.20;69.60
5868;DHT22;2960;49.142;7.768;2024-01-15T09:54:19;1.20;69.60
5868;DHT22;2960;49.142;7.768;2024-01-15T09:56:46;1.20;69.60
5868;DHT22;2960;49.142;7.768;2024-01-15T09:59:15;1.30;69.70
5868;DHT22;2960;49.142;7.768;2024-01-15T10:01:44;1.30;69.80
5868;DHT22;2960;49.142;7.768;2024-01-15T10:04:13;1.30;69.80
5868;DHT22;2960;49.142;7.768;2024-01-15T10:06:44;1.30;69.80
5868;DHT22;2960;49.142;7.768;2024-01-15T10:09:14;1.30;69.90
5868;DHT22;2960;49.142;7.768;2024-01-15T10:11:42;1.40;69.90
5868;DHT22;2960;49.142;7.768;2024-01-15T10:14:10;1.40;70.00
5868;DHT22;2960;49.142;7.768;2024-01-15T10:16:38;1.40;70.00
5868;DHT22;2960;49.142;7.768;2024-01-15T10:19:05;1.40;69.90
5868;DHT22;2960;49.142;7.768;2024-01-15T10:21:32;1.50;70.10
5868;DHT22;2960;49.142;7.768;2024-01-15T10:24:01;1.50;70.90
5868;DHT22;2960;49.142;7.768;2024-01-15T10:26:31;1.50;70.10
5868;DHT22;2960;49.142;7.768;2024-01-15T10:28:59;1.50;70.10
5868;DHT22;2960;49.142;7.768;2024-01-15T10:31:27;1.60;70.10
5868;DHT22;2960;49.142;7.768;2024-01-15T10:33:54;1.50;70.10
5868;DHT22;2960;49.142;7.768;2024-01-15T10:36:22;1.50;70.00
5868;DHT22;2960;49.142;7.768;2024-01-15T10:38:50;1.60;70.20
5868;DHT22;2960;49.142;7.768;2024-01-15T10:41:17;1.60;70.20
5868;DHT22;2960;49.142;7.768;2024-01-15T10:43:45;1.60;70.30
5868;DHT22;2960;49.142;7.768;2024-01-15T10:46:13;1.60;71.10
5868;DHT22;2960;49.142;7.768;2024-01-15T10:48:43;1.60;70.40
5868;DHT22;2960;49.142;7.768;2024-01-15T10:51:10;1.70;70.40
5868;DHT22;2960;49.142;7.768;2024-01-15T10:53:39;1.70;70.50
5868;DHT22;2960;49.142;7.768;2024-01-15T10:56:07;1.70;70.50
5868;DHT22;2960;49.142;7.768;2024-01-15T10:58:36;1.70;70.60
5868;DHT22;2960;49.142;7.768;2024-01-15T11:01:06;1.70;70.70
5868;DHT22;2960;49.142;7.768;2024-01-15T11:03:33;1.70;71.50
5868;DHT22;2960;49.142;7.768;2024-01-15T11:06:02;1.70;71.60
5868;DHT22;2960;49.142;7.768;2024-01-15T11:08:30;1.70;70.80
5868;DHT22;2960;49.142;7.768;2024-01-15T11:10:57;1.70;71.00
5868;DHT22;2960;49.142;7.768;2024-01-15T11:13:40;1.70;71.00
5868;DHT22;2960;49.142;7.768;2024-01-15T11:16:11;1.70;71.10
5868;DHT22;2960;49.142;7.768;2024-01-15T11:19:02;1.70;71.20
5868;DHT22;2960;49.142;7.768;2024-01-15T11:21:31;1.70;71.30
5868;DHT22;2960;49.142;7.768;2024-01-15T11:24:00;1.70;71.30
5868;DHT22;2960;49.142;7.768;2024-01-15T11:26:36;1.70;71.40
5868;DHT22;2960;49.142;7.768;2024-01-15T11:29:05;1.70;71.40
5868;DHT22;2960;49.142;7.768;2024-01-15T11:34:54;1.70;71.50
5868;DHT22;2960;49.142;7.768;2024-01-15T11:37:25;1.70;71.60
5868;DHT22;2960;49.142;7.768;2024-01-15T11:39:56;1.70;72.40
5868;DHT22;2960;49.142;7.768;2024-01-15T11:42:29;1.70;71.70
5868;DHT22;2960;49.142;7.768;2024-01-15T11:44:57;1.70;71.70
5868;DHT22;2960;49.142;7.768;2024-01-15T11:48:03;1.70;71.80
5868;DHT22;2960;49.142;7.768;2024-01-15T11:50:42;1.80;71.90
5868;DHT22;2960;49.142;7.768;2024-01-15T11:53:27;1.70;72.00
5868;DHT22;2960;49.142;7.768;2024-01-15T11:56:02;1.80;72.10
5868;DHT22;2960;49.142;7.768;2024-01-15T11:58:30;1.80;73.00
5868;DHT22;2960;49.142;7.768;2024-01-15T12:00:57;1.80;72.20
5868;DHT22;2960;49.142;7.768;2024-01-15T12:03:26;1.80;72.30
5868;DHT22;2960;49.142;7.768;2024-01-15T12:05:54;1.80;72.20
5868;DHT22;2960;49.142;7.768;2024-01-15T12:08:22;1.80;72.30
5868;DHT22;2960;49.142;7.768;2024-01-15T12:10:49;1.80;72.40
5868;DHT22;2960;49.142;7.768;2024-01-15T12:13:17;1.80;73.20
5868;DHT22;2960;49.142;7.768;2024-01-15T12:15:45;1.90;72.60
5868;DHT22;2960;49.142;7.768;2024-01-15T12:18:14;1.90;72.60
5868;DHT22;2960;49.142;7.768;2024-01-15T12:20:45;1.90;72.60
5868;DHT22;2960;49.142;7.768;2024-01-15T12:23:13;1.90;72.60
5868;DHT22;2960;49.142;7.768;2024-01-15T12:25:41;2.00;72.70
5868;DHT22;2960;49.142;7.768;2024-01-15T12:28:08;2.00;72.70
5868;DHT22;2960;49.142;7.768;2024-01-15T12:30:36;2.00;72.70
5868;DHT22;2960;49.142;7.768;2024-01-15T12:33:04;2.00;72.60
5868;DHT22;2960;49.142;7.768;2024-01-15T12:35:36;2.00;72.60
5868;DHT22;2960;49.142;7.768;2024-01-15T12:38:05;2.10;72.60
5868;DHT22;2960;49.142;7.768;2024-01-15T12:40:33;2.10;72.50
5868;DHT22;2960;49.142;7.768;2024-01-15T12:43:00;2.10;72.50
5868;DHT22;2960;49.142;7.768;2024-01-15T12:45:28;2.10;73.20
5868;DHT22;2960;49.142;7.768;2024-01-15T12:47:56;2.10;72.50
5868;DHT22;2960;49.142;7.768;2024-01-15T12:50:25;2.10;72.50
5868;DHT22;2960;49.142;7.768;2024-01-15T12:52:52;2.10;72.60
5868;DHT22;2960;49.142;7.768;2024-01-15T12:55:21;2.10;72.60
5868;DHT22;2960;49.142;7.768;2024-01-15T12:57:49;2.10;72.50
5868;DHT22;2960;49.142;7.768;2024-01-15T13:00:18;2.10;72.50
5868;DHT22;2960;49.142;7.768;2024-01-15T13:02:45;2.20;72.60
5868;DHT22;2960;49.142;7.768;2024-01-15T13:05:12;2.20;72.50
5868;DHT22;2960;49.142;7.768;2024-01-15T13:07:39;2.20;72.50
5868;DHT22;2960;49.142;7.768;2024-01-15T13:10:07;2.20;72.40
5868;DHT22;2960;49.142;7.768;2024-01-15T13:12:37;2.20;72.40
5868;DHT22;2960;49.142;7.768;2024-01-15T13:15:05;2.20;72.40
5868;DHT22;2960;49.142;7.768;2024-01-15T13:17:37;2.20;72.30
5868;DHT22;2960;49.142;7.768;2024-01-15T13:20:06;2.20;72.30
5868;DHT22;2960;49.142;7.768;2024-01-15T13:22:34;2.20;72.20
5868;DHT22;2960;49.142;7.768;2024-01-15T13:25:01;2.20;72.20
5868;DHT22;2960;49.142;7.768;2024-01-15T13:27:29;2.20;72.10
5868;DHT22;2960;49.142;7.768;2024-01-15T13:29:58;2.20;72.10
5868;DHT22;2960;49.142;7.768;2024-01-15T13:32:26;2.20;72.00
5868;DHT22;2960;49.142;7.768;2024-01-15T13:34:55;2.20;72.00
5868;DHT22;2960;49.142;7.768;2024-01-15T13:37:23;2.20;71.90
5868;DHT22;2960;49.142;7.768;2024-01-15T13:39:50;2.20;71.90
5868;DHT22;2960;49.142;7.768;2024-01-15T13:42:19;2.20;71.90
5868;DHT22;2960;49.142;7.768;2024-01-15T13:44:47;2.20;71.90
5868;DHT22;2960;49.142;7.768;2024-01-15T13:47:16;2.20;71.80
5868;DHT22;2960;49.142;7.768;2024-01-15T13:49:46;2.30;71.90
5868;DHT22;2960;49.142;7.768;2024-01-15T13:52:13;2.30;71.70
5868;DHT22;2960;49.142;7.768;2024-01-15T13:54:43;2.30;71.60
5868;DHT22;2960;49.142;7.768;2024-01-15T13:57:10;2.30;71.50
5868;DHT22;2960;49.142;7.768;2024-01-15T13:59:38;2.30;71.50
5868;DHT22;2960;49.142;7.768;2024-01-15T14:02:05;2.30;71.40
5868;DHT22;2960;49.142;7.768;2024-01-15T14:04:34;2.30;71.40
5868;DHT22;2960;49.142;7.768;2024-01-15T14:07:01;2.30;71.30
5868;DHT22;2960;49.142;7.768;2024-01-15T14:09:28;2.30;71.20
5868;DHT22;2960;49.142;7.768;2024-01-15T14:11:57;2.30;71.10
5868;DHT22;2960;49.142;7.768;2024-01-15T14:14:27;2.30;71.00
5868;DHT22;2960;49.142;7.768;2024-01-15T14:16:54;2.30;71.00
5868;DHT22;2960;49.142;7.768;2024-01-15T14:19:21;2.30;71.00
5868;DHT22;2960;49.142;7.768;2024-01-15T14:21:50;2.30;70.90
5868;DHT22;2960;49.142;7.768;2024-01-15T14:24:17;2.30;70.80
5868;DHT22;2960;49.142;7.768;2024-01-15T14:26:44;2.30;70.90
5868;DHT22;2960;49.142;7.768;2024-01-15T14:29:11;2.30;70.80
5868;DHT22;2960;49.142;7.768;2024-01-15T14:31:40;2.30;70.70
5868;DHT22;2960;49.142;7.768;2024-01-15T14:34:07;2.30;70.70
5868;DHT22;2960;49.142;7.768;2024-01-15T14:36:34;2.30;70.70
5868;DHT22;2960;49.142;7.768;2024-01-15T14:39:03;2.30;70.60
5868;DHT22;2960;49.142;7.768;2024-01-15T14:41:30;2.30;70.50
5868;DHT22;2960;49.142;7.768;2024-01-15T14:43:57;2.30;70.30
5868;DHT22;2960;49.142;7.768;2024-01-15T14:46:24;2.40;70.40
5868;DHT22;2960;49.142;7.768;2024-01-15T14:48:53;2.30;70.20
5868;DHT22;2960;49.142;7.768;2024-01-15T14:51:20;2.30;70.10
5868;DHT22;2960;49.142;7.768;2024-01-15T14:53:47;2.40;70.20
5868;DHT22;2960;49.142;7.768;2024-01-15T14:56:15;2.40;70.20
5868;DHT22;2960;49.142;7.768;2024-01-15T14:58:43;2.40;70.10
5868;DHT22;2960;49.142;7.768;2024-01-15T15:01:10;2.40;70.10
5868;DHT22;2960;49.142;7.768;2024-01-15T15:03:39;2.40;70.00
5868;DHT22;2960;49.142;7.768;2024-01-15T15:06:07;2.40;70.00
5868;DHT22;2960;49.142;7.768;2024-01-15T15:08:34;2.40;70.00
5868;DHT22;2960;49.142;7.768;2024-01-15T15:11:02;2.40;70.00
5868;DHT22;2960;49.142;7.768;2024-01-15T15:13:31;2.30;69.90
5868;DHT22;2960;49.142;7.768;2024-01-15T15:15:59;2.40;70.20
5868;DHT22;2960;49.142;7.768;2024-01-15T15:18:26;2.30;70.20
5868;DHT22;2960;49.142;7.768;2024-01-15T15:20:56;2.30;70.20
5868;DHT22;2960;49.142;7.768;2024-01-15T15:23:23;2.30;70.20
5868;DHT22;2960;49.142;7.768;2024-01-15T15:25:52;2.20;70.10
5868;DHT22;2960;49.142;7.768;2024-01-15T15:28:20;2.20;70.10
5868;DHT22;2960;49.142;7.768;2024-01-15T15:30:48;2.20;70.10
5868;DHT22;2960;49.142;7.768;2024-01-15T15:33:16;2.20;70.20
5868;DHT22;2960;49.142;7.768;2024-01-15T15:35:44;2.20;70.20
5868;DHT22;2960;49.142;7.768;2024-01-15T15:38:11;2.20;70.20
5868;DHT22;2960;49.142;7.768;2024-01-15T15:40:38;2.20;70.90
5868;DHT22;2960;49.142;7.768;2024-01-15T15:43:05;2.20;70.20
5868;DHT22;2960;49.142;7.768;2024-01-15T15:45:32;2.20;70.20
5868;DHT22;2960;49.142;7.768;2024-01-15T15:48:00;2.10;70.00
5868;DHT22;2960;49.142;7.768;2024-01-15T15:50:27;2.10;70.10
5868;DHT22;2960;49.142;7.768;2024-01-15T15:52:55;2.10;70.10
5868;DHT22;2960;49.142;7.768;2024-01-15T15:55:22;2.20;70.20
5868;DHT22;2960;49.142;7.768;2024-01-15T15:57:49;2.10;70.10
5868;DHT22;2960;49.142;7.768;2024-01-15T16:00:16;2.20;70.20
5868;DHT22;2960;49.142;7.768;2024-01-15T16:02:44;2.20;70.20
5868;DHT22;2960;49.142;7.768;2024-01-15T16:05:13;2.20;70.10
5868;DHT22;2960;49.142;7.768;2024-01-15T16:07:40;2.20;70.00
5868;DHT22;2960;49.142;7.768;2024-01-15T16:10:08;2.20;70.00
5868;DHT22;2960;49.142;7.768;2024-01-15T16:12:36;2.20;69.90
5868;DHT22;2960;49.142;7.768;2024-01-15T16:15:17;2.20;70.60
5868;DHT22;2960;49.142;7.768;2024-01-15T16:17:46;2.20;69.80
5868;DHT22;2960;49.142;7.768;2024-01-15T16:20:16;2.20;69.80